Delta Virtual Airport Information Service

Boston Logan International Airport

ICAO: KBOS Country: United States
Latitude: 42.363 Longitude: -71.0064
Latest Arrival : UAL1578 (2) (KIAH-KBOS) Latest Departure : NKS1952 (B) (KBOS-KBWI)


WX CaptureLIVE
Data provided by noaa.gov | Fetched at 23:14:34

METAR : KBOS 250354Z 05005KT 10SM FEW011 BKN018 OVC042 09/07 A3031 RMK AO2 SLP261 T00940067

TAF : KBOS 250257Z 2503/2606 07009KT P6SM BKN012 FM250600 07005KT 3SM BR SCT007 OVC010 FM251200 08006KT 6SM -DZ BR OVC005 FM251400 09007KT P6SM OVC008 FM260100 12004KT P6SM BKN050


Runway Data for KBOS
Data provided by openaviationdata.com

Runway ID Mag Var Hdg Length Elevation Surface ILS Freq ILS Id ILS Slope
04L -15 35° 7475 ft 0 ft Bituminous -- -- --
04R -15 35° 7513 ft 0 ft Bituminous 110.3 IBOS 3
9 -15 92° 6761 ft 0 ft Bituminous -- -- --
14 -15 140° 5033 ft 0 ft Asphalt -- -- --
15L -15 151° 2555 ft 0 ft Asphalt -- -- --
15R -15 151° 9857 ft 0 ft Bituminous 110.7 IMDC 3
22L -15 215° 7513 ft 0 ft Bituminous 110.3 ILQN 3
22R -15 215° 7475 ft 0 ft Bituminous -- -- --
27 -15 272° 6761 ft 0 ft Bituminous 111.3 IDGU 3
32 -15 320° 5033 ft 0 ft Asphalt -- -- --
33L -15 331° 9857 ft 0 ft Bituminous 110.7 ILIP 3
33R -15 331° 2555 ft 0 ft Asphalt -- -- --

Boston Logan International Airport, United States
Use only for reference purposes



Not for navigational purposes.